Time;durP1;ratioP1;P1;durP2;ratioP2;P2;SDS_P1;SDS_P2;PMS_P1;PMS_P2;Temp;Humidity;BMP_temperature;BMP_pressure;BME280_temperature;BME280_humidity;BME280_pressure;Samples;Min_cycle;Max_cycle;Signal;HPM_P1;HPM_P2
2022/10/13 00:00:11;;;;;;;24.87;22.60;;;13.00;94.60;;;;;;4952910;29;20470;-80
2022/10/13 00:02:37;;;;;;;24.37;22.17;;;13.00;94.50;;;;;;4952492;28;20495;-80
2022/10/13 00:05:06;;;;;;;24.40;22.33;;;12.90;94.20;;;;;;4943016;29;20562;-80
2022/10/13 00:07:33;;;;;;;25.43;22.93;;;12.80;94.40;;;;;;4954078;28;21104;-80
2022/10/13 00:10:00;;;;;;;24.70;22.40;;;12.70;94.60;;;;;;4954655;29;20536;-80
2022/10/13 00:12:27;;;;;;;24.40;22.30;;;12.50;95.00;;;;;;4956818;29;20554;-80
2022/10/13 00:14:54;;;;;;;25.40;22.70;;;12.50;95.00;;;;;;4958024;28;20483;-80
2022/10/13 00:17:21;;;;;;;24.87;22.97;;;12.50;94.70;;;;;;4957880;28;21021;-80
2022/10/13 00:19:48;;;;;;;24.20;22.40;;;12.50;95.00;;;;;;4956667;28;20531;-80
2022/10/13 00:22:16;;;;;;;25.53;23.30;;;12.50;95.10;;;;;;4956771;28;20567;-80
2022/10/13 00:24:43;;;;;;;26.63;24.03;;;12.50;95.00;;;;;;4954512;28;20861;-80
2022/10/13 00:27:10;;;;;;;25.00;22.70;;;12.50;94.80;;;;;;4957175;29;20558;-80
2022/10/13 00:29:37;;;;;;;26.87;24.03;;;12.50;94.90;;;;;;4955068;28;20518;-80
2022/10/13 00:32:03;;;;;;;26.27;23.83;;;12.50;95.30;;;;;;4955691;29;20482;-80
2022/10/13 00:34:30;;;;;;;26.47;24.00;;;12.50;95.30;;;;;;4955083;28;20510;-80
2022/10/13 00:36:57;;;;;;;29.67;26.67;;;12.60;95.30;;;;;;4953913;28;20462;-80
2022/10/13 00:39:25;;;;;;;28.80;26.10;;;12.60;95.50;;;;;;4954935;28;20478;-81
2022/10/13 00:41:53;;;;;;;29.10;26.23;;;12.70;95.70;;;;;;4952833;29;20527;-80
2022/10/13 00:44:57;;;;;;;29.93;26.80;;;12.80;95.60;;;;;;4939414;28;20511;-80
2022/10/13 00:47:25;;;;;;;31.40;28.10;;;12.90;95.50;;;;;;4935756;29;20559;-80
2022/10/13 00:49:53;;;;;;;33.57;28.30;;;12.90;95.50;;;;;;4941677;28;20463;-80
2022/10/13 00:52:21;;;;;;;30.03;27.13;;;12.90;95.30;;;;;;4953197;29;20910;-78
2022/10/13 00:54:50;;;;;;;29.97;26.90;;;12.90;95.50;;;;;;4950816;29;20567;-79
2022/10/13 00:57:19;;;;;;;32.83;29.10;;;12.90;95.70;;;;;;4959556;28;20467;-79
2022/10/13 00:59:47;;;;;;;33.47;29.97;;;12.80;95.90;;;;;;4958071;29;20471;-79
2022/10/13 01:02:14;;;;;;;32.23;29.03;;;12.80;95.90;;;;;;4957981;28;20554;-78
2022/10/13 01:04:45;;;;;;;30.40;27.20;;;12.90;95.90;;;;;;4957200;28;20760;-79
2022/10/13 01:07:13;;;;;;;31.80;28.40;;;12.90;95.90;;;;;;4957901;28;20546;-79
2022/10/13 01:09:41;;;;;;;34.50;28.00;;;12.90;95.90;;;;;;4952182;28;20551;-79
2022/10/13 01:12:19;;;;;;;32.53;28.17;;;12.90;95.90;;;;;;4956635;28;20574;-79
2022/10/13 01:14:53;;;;;;;31.27;28.20;;;12.90;95.80;;;;;;4954954;28;20518;-79
2022/10/13 01:17:30;;;;;;;30.50;27.60;;;12.80;95.90;;;;;;4957195;28;20459;-78
2022/10/13 01:20:22;;;;;;;31.43;28.23;;;12.80;95.90;;;;;;4958107;29;20460;-78
2022/10/13 01:23:02;;;;;;;31.87;28.67;;;12.70;96.10;;;;;;4955741;29;20447;-79
2022/10/13 01:25:47;;;;;;;32.17;28.80;;;12.70;96.20;;;;;;4946894;29;20489;-78
2022/10/13 01:28:42;;;;;;;31.73;28.53;;;12.70;96.30;;;;;;4959442;29;20605;-78
2022/10/13 01:31:19;;;;;;;31.33;28.10;;;12.60;96.40;;;;;;4952508;28;20578;-79
2022/10/13 01:33:54;;;;;;;29.03;25.50;;;12.60;96.40;;;;;;4952290;29;20619;-79
2022/10/13 01:36:28;;;;;;;30.80;27.73;;;12.60;96.40;;;;;;4949973;28;20465;-79
2022/10/13 01:39:01;;;;;;;29.50;26.47;;;12.60;96.30;;;;;;4951479;28;20477;-78
2022/10/13 01:41:33;;;;;;;32.30;26.70;;;12.50;96.30;;;;;;4948386;28;20988;-79
2022/10/13 01:44:06;;;;;;;31.07;27.57;;;12.50;96.30;;;;;;4948647;29;20846;-79
2022/10/13 01:46:37;;;;;;;33.47;28.13;;;12.50;96.50;;;;;;4950633;28;20833;-79
2022/10/13 01:49:07;;;;;;;30.50;27.23;;;12.40;96.60;;;;;;4954010;29;21062;-79
2022/10/13 01:51:35;;;;;;;32.50;27.50;;;12.40;96.60;;;;;;4951314;28;21000;-79
2022/10/13 01:54:02;;;;;;;31.60;28.50;;;12.40;96.80;;;;;;4946724;28;20898;-79
2022/10/13 01:56:28;;;;;;;33.30;29.13;;;12.40;96.80;;;;;;4953462;28;20474;-79
2022/10/13 01:58:58;;;;;;;33.23;29.17;;;12.40;96.90;;;;;;4952333;28;21028;-79
2022/10/13 02:01:39;;;;;;;33.67;30.20;;;12.40;97.10;;;;;;4953408;28;20477;-79
2022/10/13 02:04:20;;;;;;;32.67;28.93;;;12.40;97.30;;;;;;4952810;28;20870;-79
2022/10/13 02:06:53;;;;;;;33.57;27.80;;;12.40;97.40;;;;;;4953421;28;20474;-79
2022/10/13 02:09:30;;;;;;;31.40;28.30;;;12.40;97.40;;;;;;4954105;28;20945;-78
2022/10/13 02:12:02;;;;;;;29.33;26.33;;;12.50;97.40;;;;;;4955025;29;20479;-78
2022/10/13 02:14:32;;;;;;;33.17;28.90;;;12.50;97.20;;;;;;4954700;28;20489;-79
2022/10/13 02:17:03;;;;;;;32.47;29.17;;;12.50;97.30;;;;;;4952320;28;20467;-79
2022/10/13 02:19:33;;;;;;;34.80;31.20;;;12.60;97.30;;;;;;4953188;28;20493;-79
2022/10/13 02:22:00;;;;;;;31.10;28.10;;;12.60;97.20;;;;;;4954463;28;20462;-78
2022/10/13 02:24:27;;;;;;;30.73;27.77;;;12.70;97.00;;;;;;4952273;28;20483;-78
2022/10/13 02:26:54;;;;;;;32.40;29.00;;;12.70;97.10;;;;;;4952891;28;20472;-79
2022/10/13 02:29:21;;;;;;;32.40;27.43;;;12.70;97.00;;;;;;4951858;28;20469;-79
2022/10/13 02:31:48;;;;;;;30.20;27.13;;;12.80;96.70;;;;;;4953979;28;20511;-79
2022/10/13 02:34:16;;;;;;;35.23;29.90;;;12.80;96.70;;;;;;4952520;28;20487;-79
2022/10/13 02:36:43;;;;;;;35.40;28.37;;;12.80;96.80;;;;;;4952776;28;20494;-79
2022/10/13 02:39:11;;;;;;;31.03;27.57;;;12.80;96.80;;;;;;4951126;28;20916;-79
2022/10/13 02:41:38;;;;;;;35.03;28.53;;;12.90;96.60;;;;;;4953400;29;20455;-79
2022/10/13 02:44:05;;;;;;;29.13;26.20;;;13.00;96.40;;;;;;4952006;28;21299;-79
2022/10/13 02:46:32;;;;;;;37.30;33.90;;;13.00;96.20;;;;;;4941777;29;20464;-79
2022/10/13 02:48:59;;;;;;;32.80;28.33;;;13.00;96.20;;;;;;4950764;28;20466;-79
2022/10/13 02:51:27;;;;;;;33.23;28.87;;;13.00;96.00;;;;;;4952518;28;20483;-79
2022/10/13 02:53:54;;;;;;;42.17;38.33;;;13.10;95.80;;;;;;4951473;28;20582;-79
2022/10/13 02:56:21;;;;;;;36.07;32.37;;;13.10;95.80;;;;;;4952897;28;20542;-79
2022/10/13 02:58:48;;;;;;;32.83;28.67;;;13.10;95.70;;;;;;4951298;28;20455;-79
2022/10/13 03:01:15;;;;;;;31.27;27.90;;;13.00;95.70;;;;;;4953716;28;20455;-79
2022/10/13 03:03:43;;;;;;;44.77;40.97;;;13.00;96.00;;;;;;4952164;28;21245;-79
2022/10/13 03:06:10;;;;;;;30.47;27.33;;;13.10;96.00;;;;;;4953377;29;20463;-79
2022/10/13 03:08:38;;;;;;;32.30;29.10;;;13.10;96.00;;;;;;4951896;28;20470;-79
2022/10/13 03:11:06;;;;;;;46.60;42.10;;;13.10;95.80;;;;;;4952032;28;20507;-79
2022/10/13 03:13:33;;;;;;;32.40;29.30;;;13.10;95.70;;;;;;4952371;28;20492;-79
2022/10/13 03:16:00;;;;;;;32.67;28.90;;;13.20;95.70;;;;;;4953629;28;20542;-79
2022/10/13 03:18:27;;;;;;;32.57;29.03;;;13.20;95.70;;;;;;4952202;28;20467;-79
2022/10/13 03:20:58;;;;;;;33.97;30.80;;;13.20;95.80;;;;;;4947755;29;20470;-79
2022/10/13 03:23:25;;;;;;;33.57;27.97;;;13.20;96.00;;;;;;4952783;28;20915;-79
2022/10/13 03:25:53;;;;;;;31.40;27.90;;;13.20;95.60;;;;;;4953566;29;20897;-78
2022/10/13 03:28:20;;;;;;;33.27;29.83;;;13.30;95.60;;;;;;4951660;28;20551;-78
2022/10/13 03:30:48;;;;;;;30.60;27.40;;;13.30;95.40;;;;;;4951972;29;20559;-78
2022/10/13 03:33:15;;;;;;;32.60;29.10;;;13.30;95.50;;;;;;4953213;28;20507;-78
2022/10/13 03:35:42;;;;;;;31.70;27.90;;;13.30;95.60;;;;;;4956447;28;20914;-78
2022/10/13 03:38:09;;;;;;;31.50;28.40;;;13.40;95.30;;;;;;4967201;28;20506;-78
2022/10/13 03:40:36;;;;;;;32.30;29.33;;;13.40;95.30;;;;;;4964605;29;20526;-78
2022/10/13 03:43:04;;;;;;;40.27;35.40;;;13.30;95.30;;;;;;4968616;28;20456;-78
2022/10/13 03:45:31;;;;;;;42.90;38.80;;;13.30;95.40;;;;;;4977464;28;20499;-78
2022/10/13 03:47:59;;;;;;;44.80;41.20;;;13.30;95.40;;;;;;4976293;28;20506;-78
2022/10/13 03:50:26;;;;;;;36.37;32.97;;;13.40;95.30;;;;;;4960183;29;20454;-78
2022/10/13 03:52:53;;;;;;;41.23;37.23;;;13.40;95.20;;;;;;4954144;28;21036;-79
2022/10/13 03:55:20;;;;;;;31.83;28.90;;;13.40;95.00;;;;;;4952404;28;20493;-79
2022/10/13 03:57:47;;;;;;;43.47;39.80;;;13.50;94.60;;;;;;4950582;28;20460;-79
2022/10/13 04:00:16;;;;;;;34.20;31.00;;;13.50;94.40;;;;;;4952942;28;20495;-79
2022/10/13 04:02:43;;;;;;;33.73;30.47;;;13.50;94.50;;;;;;4953172;28;20455;-79
2022/10/13 04:05:10;;;;;;;37.13;33.90;;;13.50;94.60;;;;;;4952400;28;20472;-79
2022/10/13 04:07:37;;;;;;;29.67;26.77;;;13.50;94.50;;;;;;4952998;28;20462;-79
2022/10/13 04:10:04;;;;;;;31.40;28.07;;;13.50;94.60;;;;;;4950811;28;20988;-79
2022/10/13 04:12:31;;;;;;;41.07;37.50;;;13.60;94.50;;;;;;4951938;29;20515;-77
2022/10/13 04:14:58;;;;;;;39.13;35.63;;;13.60;94.40;;;;;;4952078;29;21010;-78
2022/10/13 04:17:26;;;;;;;40.80;37.80;;;13.60;94.40;;;;;;4950574;28;20464;-80
2022/10/13 04:19:53;;;;;;;38.57;34.93;;;13.70;94.20;;;;;;4950117;28;20856;-79
2022/10/13 04:22:20;;;;;;;40.80;37.37;;;13.70;94.10;;;;;;4952261;29;20456;-79
2022/10/13 04:24:47;;;;;;;32.20;29.13;;;13.60;93.90;;;;;;4952451;28;20578;-79
2022/10/13 04:27:15;;;;;;;37.73;34.20;;;13.70;93.80;;;;;;4952831;28;20467;-79
2022/10/13 04:29:42;;;;;;;37.73;34.67;;;13.70;93.70;;;;;;4951127;29;20970;-79
2022/10/13 04:32:09;;;;;;;28.97;26.37;;;13.70;93.60;;;;;;4950513;28;20597;-79
2022/10/13 04:34:37;;;;;;;29.80;27.30;;;13.80;93.20;;;;;;4952417;28;20566;-79
2022/10/13 04:37:04;;;;;;;34.47;31.43;;;13.80;93.10;;;;;;4951202;28;20466;-79
2022/10/13 04:39:32;;;;;;;33.00;29.73;;;13.80;92.90;;;;;;4956318;29;21011;-81
2022/10/13 04:41:59;;;;;;;29.00;26.20;;;13.90;92.60;;;;;;4964032;28;20234;-81
2022/10/13 04:44:26;;;;;;;31.70;28.40;;;13.80;92.50;;;;;;4954468;28;20506;-82
2022/10/13 04:46:52;;;;;;;29.03;26.67;;;13.80;92.70;;;;;;4967339;28;20486;-81
2022/10/13 04:49:19;;;;;;;37.87;34.73;;;13.80;92.80;;;;;;4964333;29;20978;-77
2022/10/13 04:51:48;;;;;;;32.23;29.23;;;13.80;92.70;;;;;;4958820;28;20564;-83
2022/10/13 04:54:15;;;;;;;32.43;29.73;;;13.80;92.50;;;;;;4956920;29;21056;-83
2022/10/13 04:56:44;;;;;;;30.83;27.87;;;13.80;92.50;;;;;;4956795;28;20460;-85
2022/10/13 04:59:11;;;;;;;31.43;28.40;;;13.80;92.40;;;;;;4955555;29;20535;-82
2022/10/13 05:01:38;;;;;;;44.33;40.80;;;13.80;92.30;;;;;;4955185;28;21097;-82
2022/10/13 05:04:06;;;;;;;35.83;32.57;;;13.70;92.30;;;;;;4956510;29;20560;-80
2022/10/13 05:06:35;;;;;;;42.53;38.90;;;13.70;92.30;;;;;;4947360;29;20889;-79
2022/10/13 05:09:06;;;;;;;30.50;27.50;;;13.60;92.20;;;;;;4955778;29;20565;-81
2022/10/13 05:11:33;;;;;;;32.27;29.47;;;13.60;92.40;;;;;;4955112;28;20533;-79
2022/10/13 05:14:01;;;;;;;35.10;32.20;;;13.50;92.60;;;;;;4953661;28;20484;-81
2022/10/13 05:16:29;;;;;;;37.50;34.40;;;13.60;92.50;;;;;;4954210;29;20477;-81
2022/10/13 05:18:56;;;;;;;35.77;32.77;;;13.50;92.90;;;;;;4955634;29;20495;-81
2022/10/13 05:21:26;;;;;;;41.30;38.10;;;13.40;93.20;;;;;;4953817;28;20486;-85
2022/10/13 05:23:54;;;;;;;41.50;38.50;;;13.40;93.20;;;;;;4960213;28;20521;-78
2022/10/13 05:26:27;;;;;;;34.07;30.07;;;13.40;93.20;;;;;;4959706;28;20996;-85
2022/10/13 05:28:54;;;;;;;31.67;28.77;;;13.50;92.90;;;;;;4952789;29;20542;-85
2022/10/13 05:31:24;;;;;;;35.23;31.80;;;13.50;92.80;;;;;;4953566;28;20564;-82
2022/10/13 05:33:51;;;;;;;29.53;27.20;;;13.40;93.10;;;;;;4943251;29;20543;-77
2022/10/13 05:36:20;;;;;;;39.40;36.13;;;13.40;93.10;;;;;;4952521;28;20910;-78
2022/10/13 05:38:52;;;;;;;29.80;27.23;;;13.40;93.30;;;;;;4954195;29;20459;-79
2022/10/13 05:41:22;;;;;;;31.07;27.97;;;13.50;92.90;;;;;;4952632;29;20459;-88
2022/10/13 05:43:58;;;;;;;30.97;28.37;;;13.50;92.80;;;;;;4953191;28;20494;-89
2022/10/13 05:46:37;;;;;;;49.10;45.60;;;13.50;92.50;;;;;;4953036;29;20456;-87
2022/10/13 05:49:06;;;;;;;31.20;28.33;;;13.50;92.70;;;;;;4951549;29;20451;-88
2022/10/13 05:51:47;;;;;;;41.47;37.87;;;13.60;92.30;;;;;;4953444;28;20887;-89
2022/10/13 05:54:17;;;;;;;26.43;24.07;;;13.60;92.10;;;;;;4956090;28;20931;-80
2022/10/13 05:56:51;;;;;;;36.13;33.40;;;13.60;92.20;;;;;;4957860;29;20535;-80
2022/10/13 05:59:19;;;;;;;40.13;36.60;;;13.50;92.40;;;;;;4959045;28;20556;-80
2022/10/13 06:01:47;;;;;;;43.40;40.33;;;13.60;92.40;;;;;;4962517;28;20627;-79
2022/10/13 06:04:17;;;;;;;32.57;27.10;;;13.50;92.40;;;;;;4950942;28;20482;-78
2022/10/13 06:06:44;;;;;;;30.80;28.20;;;13.60;92.40;;;;;;4949104;28;20459;-78
2022/10/13 06:09:11;;;;;;;32.10;28.80;;;13.60;92.20;;;;;;4940755;28;20472;-75
2022/10/13 06:11:38;;;;;;;40.80;37.23;;;13.70;92.30;;;;;;4930575;29;20488;-79
2022/10/13 06:14:07;;;;;;;32.50;29.30;;;13.80;91.90;;;;;;4942285;28;20498;-78
2022/10/13 06:16:35;;;;;;;31.97;29.27;;;13.80;91.50;;;;;;4951175;28;20478;-78
2022/10/13 06:19:04;;;;;;;43.30;39.83;;;13.90;91.10;;;;;;4950618;29;20459;-79
2022/10/13 06:21:31;;;;;;;44.00;40.83;;;13.90;91.20;;;;;;4950534;29;20470;-79
2022/10/13 06:23:58;;;;;;;41.17;38.10;;;13.90;91.30;;;;;;4940693;29;20476;-78
2022/10/13 06:26:24;;;;;;;30.43;27.50;;;14.00;91.30;;;;;;4942447;28;20510;-78
2022/10/13 06:28:52;;;;;;;30.60;27.87;;;14.10;90.60;;;;;;4941128;28;20463;-78
2022/10/13 06:31:20;;;;;;;36.27;33.27;;;14.20;90.10;;;;;;4947700;28;20474;-78
2022/10/13 06:33:47;;;;;;;31.80;28.50;;;14.20;90.10;;;;;;4949402;28;21007;-78
2022/10/13 06:36:14;;;;;;;30.97;28.27;;;14.10;89.90;;;;;;4952554;28;20477;-78
2022/10/13 06:38:41;;;;;;;31.30;28.43;;;14.20;89.40;;;;;;4953058;28;20468;-78
2022/10/13 06:41:09;;;;;;;33.47;30.47;;;14.10;89.50;;;;;;4951709;28;20547;-78
2022/10/13 06:43:37;;;;;;;55.53;51.77;;;14.10;90.00;;;;;;4957285;28;21478;-79
2022/10/13 06:46:04;;;;;;;33.57;30.57;;;14.10;90.00;;;;;;4953088;28;20475;-79
2022/10/13 06:48:32;;;;;;;43.03;39.37;;;14.20;89.70;;;;;;4954140;28;20456;-79
2022/10/13 06:51:01;;;;;;;33.77;30.37;;;14.10;89.90;;;;;;4951187;28;20473;-76
2022/10/13 06:53:28;;;;;;;40.40;36.93;;;14.10;90.00;;;;;;4951360;29;20484;-76
2022/10/13 06:55:57;;;;;;;52.47;48.87;;;14.30;89.80;;;;;;4951536;28;20514;-77
2022/10/13 06:58:27;;;;;;;38.37;35.23;;;14.30;89.50;;;;;;4952731;28;20455;-79
2022/10/13 07:00:55;;;;;;;45.57;42.23;;;14.40;89.10;;;;;;4953018;29;21074;-78
2022/10/13 07:03:22;;;;;;;46.93;43.43;;;14.40;89.10;;;;;;4953935;29;20870;-78
2022/10/13 07:05:51;;;;;;;43.97;40.83;;;14.50;88.70;;;;;;4952654;28;20494;-77
2022/10/13 07:08:18;;;;;;;46.70;43.30;;;14.40;88.80;;;;;;4952719;29;20841;-77
2022/10/13 07:10:46;;;;;;;36.87;33.70;;;14.50;88.80;;;;;;4952807;29;20542;-78
2022/10/13 07:13:13;;;;;;;41.40;38.07;;;14.60;88.60;;;;;;4951617;28;21070;-78
2022/10/13 07:15:40;;;;;;;46.87;43.17;;;14.70;88.30;;;;;;4952576;28;20542;-78
2022/10/13 07:18:08;;;;;;;40.13;36.93;;;14.80;87.90;;;;;;4952751;29;20495;-79
2022/10/13 07:20:35;;;;;;;35.47;31.73;;;14.80;87.70;;;;;;4954548;29;20542;-80
2022/10/13 07:23:04;;;;;;;46.70;43.37;;;14.90;87.40;;;;;;4953060;28;20463;-77
2022/10/13 07:25:31;;;;;;;39.00;36.07;;;15.10;86.70;;;;;;4952172;28;20571;-76
2022/10/13 07:27:58;;;;;;;47.87;44.33;;;15.00;86.20;;;;;;4950786;28;20463;-76
2022/10/13 07:30:25;;;;;;;38.03;34.67;;;15.00;86.40;;;;;;4951025;29;20464;-79
2022/10/13 07:32:52;;;;;;;39.30;35.80;;;15.10;86.10;;;;;;4951664;28;20940;-77
2022/10/13 07:35:20;;;;;;;33.90;31.20;;;15.30;85.40;;;;;;4951624;28;20501;-78
2022/10/13 07:37:47;;;;;;;57.83;53.83;;;15.30;85.20;;;;;;4952445;28;20476;-79
2022/10/13 07:40:15;;;;;;;40.93;38.03;;;15.40;84.80;;;;;;4948147;28;20475;-80
2022/10/13 07:42:42;;;;;;;36.10;33.13;;;15.50;84.50;;;;;;4952369;29;20460;-77
2022/10/13 07:45:10;;;;;;;36.77;33.77;;;15.50;83.90;;;;;;4950886;28;20479;-78
2022/10/13 07:47:37;;;;;;;40.73;37.40;;;15.60;83.90;;;;;;4950274;28;20467;-78
2022/10/13 07:50:04;;;;;;;46.27;43.17;;;15.70;83.50;;;;;;4951602;28;20474;-78
2022/10/13 07:52:31;;;;;;;33.90;31.00;;;15.70;83.60;;;;;;4950618;28;20499;-78
2022/10/13 07:54:58;;;;;;;38.90;35.43;;;15.80;83.10;;;;;;4951427;29;20479;-78
2022/10/13 07:57:27;;;;;;;54.70;51.40;;;15.80;82.90;;;;;;4950706;28;20471;-77
2022/10/13 07:59:54;;;;;;;56.17;52.20;;;15.90;83.00;;;;;;4951114;29;20933;-77
2022/10/13 08:02:21;;;;;;;34.23;31.23;;;16.10;82.40;;;;;;4950687;28;21083;-78
2022/10/13 08:04:48;;;;;;;34.70;31.93;;;16.00;82.30;;;;;;4949187;28;20670;-78
2022/10/13 08:07:18;;;;;;;38.63;35.83;;;16.10;82.20;;;;;;4950231;28;20462;-78
2022/10/13 08:09:45;;;;;;;43.33;39.77;;;16.20;81.50;;;;;;4951089;28;20460;-78
2022/10/13 08:12:12;;;;;;;34.10;31.47;;;16.20;81.70;;;;;;4947563;29;20550;-78
2022/10/13 08:14:40;;;;;;;34.80;31.77;;;16.30;81.60;;;;;;4949823;28;20858;-78
2022/10/13 08:17:09;;;;;;;44.30;40.80;;;16.30;81.40;;;;;;4952629;28;20553;-78
2022/10/13 08:19:36;;;;;;;32.13;29.93;;;16.20;81.50;;;;;;4950030;28;20463;-77
2022/10/13 08:22:03;;;;;;;47.33;44.33;;;16.20;81.40;;;;;;4950546;28;20572;-77
2022/10/13 08:24:30;;;;;;;37.03;34.10;;;16.30;81.20;;;;;;4950753;29;20566;-77
2022/10/13 08:26:57;;;;;;;38.60;35.70;;;16.30;81.20;;;;;;4951989;29;20460;-77
2022/10/13 08:29:24;;;;;;;52.97;49.47;;;16.40;80.90;;;;;;4947782;28;20997;-77
2022/10/13 08:31:53;;;;;;;38.13;34.97;;;16.50;80.60;;;;;;4950227;28;20467;-77
2022/10/13 08:34:20;;;;;;;36.10;33.40;;;16.50;80.50;;;;;;4949494;28;20562;-77
2022/10/13 08:36:47;;;;;;;36.87;33.93;;;16.60;80.30;;;;;;4950549;28;20490;-77
2022/10/13 08:39:14;;;;;;;50.10;46.60;;;16.70;79.90;;;;;;4950599;28;20566;-77
2022/10/13 08:41:43;;;;;;;42.20;39.20;;;16.80;80.00;;;;;;4949401;29;20459;-77
2022/10/13 08:44:19;;;;;;;33.63;30.83;;;16.90;79.60;;;;;;4950104;28;20483;-77
2022/10/13 08:46:54;;;;;;;57.10;53.57;;;17.00;79.30;;;;;;4936987;29;20473;-77
2022/10/13 08:49:22;;;;;;;43.73;40.73;;;17.10;78.70;;;;;;4946570;28;20471;-76
2022/10/13 08:51:49;;;;;;;33.23;30.63;;;17.20;78.50;;;;;;4950287;28;20478;-78
2022/10/13 08:54:19;;;;;;;44.10;41.50;;;17.30;78.60;;;;;;4948136;28;20489;-76
2022/10/13 08:56:49;;;;;;;43.83;41.20;;;17.30;78.20;;;;;;4940556;29;20464;-79
2022/10/13 08:59:17;;;;;;;41.00;37.73;;;17.50;77.30;;;;;;4950539;28;20463;-78
2022/10/13 09:01:48;;;;;;;33.60;31.23;;;17.60;77.10;;;;;;4949934;28;21064;-79
2022/10/13 09:04:29;;;;;;;39.77;37.00;;;17.60;76.60;;;;;;4950156;28;20967;-78
2022/10/13 09:07:02;;;;;;;42.10;39.30;;;17.70;76.90;;;;;;4939412;29;20475;-77
2022/10/13 09:09:30;;;;;;;36.90;33.80;;;17.80;76.40;;;;;;4948055;28;20526;-76
2022/10/13 09:11:58;;;;;;;30.93;28.87;;;17.90;75.80;;;;;;4945174;28;20486;-78
2022/10/13 09:14:27;;;;;;;31.93;29.73;;;18.00;75.60;;;;;;4954392;28;20483;-79
2022/10/13 09:16:55;;;;;;;49.17;46.07;;;18.10;74.80;;;;;;4943080;28;20779;-79
2022/10/13 09:19:27;;;;;;;50.57;47.33;;;18.20;74.60;;;;;;4956635;28;20634;-81
2022/10/13 09:21:56;;;;;;;31.10;29.20;;;18.30;74.80;;;;;;4956324;28;20467;-79
2022/10/13 09:24:26;;;;;;;32.10;29.77;;;18.30;74.10;;;;;;4956546;28;20475;-80
2022/10/13 09:27:05;;;;;;;34.40;32.00;;;18.30;74.70;;;;;;4956600;28;20494;-79
2022/10/13 09:29:32;;;;;;;40.23;37.63;;;18.20;74.90;;;;;;4958031;28;20883;-80
2022/10/13 09:32:16;;;;;;;36.47;33.93;;;18.40;74.60;;;;;;4958382;28;20503;-80
2022/10/13 09:34:44;;;;;;;31.40;29.30;;;18.50;74.50;;;;;;4957678;28;20479;-80
2022/10/13 09:37:19;;;;;;;34.20;31.70;;;18.50;74.10;;;;;;4953212;28;20466;-81
2022/10/13 09:39:47;;;;;;;33.37;31.10;;;18.70;74.20;;;;;;4950926;28;20463;-81
2022/10/13 09:42:23;;;;;;;45.23;42.33;;;18.80;73.70;;;;;;4953084;28;20482;-80
2022/10/13 09:44:57;;;;;;;35.07;32.47;;;18.80;73.70;;;;;;4950132;28;21046;-79
2022/10/13 09:47:25;;;;;;;53.03;50.07;;;18.90;73.50;;;;;;4952283;28;20921;-82
2022/10/13 09:50:02;;;;;;;32.90;30.43;;;18.90;73.40;;;;;;4952926;29;20460;-79
2022/10/13 09:52:29;;;;;;;50.70;47.80;;;19.00;72.80;;;;;;4955993;28;20486;-82
2022/10/13 09:54:59;;;;;;;33.60;31.50;;;18.80;73.00;;;;;;4955069;28;20488;-81
2022/10/13 09:57:34;;;;;;;41.37;38.87;;;18.90;73.30;;;;;;4951744;28;20468;-78
2022/10/13 10:00:12;;;;;;;37.90;35.60;;;18.80;72.90;;;;;;4949264;29;20795;-79
2022/10/13 10:02:45;;;;;;;38.60;36.40;;;18.80;73.50;;;;;;4944758;28;20925;-78
2022/10/13 10:05:23;;;;;;;44.53;41.53;;;18.90;73.60;;;;;;4951522;28;20475;-78
2022/10/13 10:07:50;;;;;;;34.57;32.30;;;19.00;73.50;;;;;;4950197;28;20471;-77
2022/10/13 10:10:28;;;;;;;33.77;31.67;;;19.10;73.00;;;;;;4951991;29;20478;-77
2022/10/13 10:12:55;;;;;;;36.70;34.27;;;19.20;72.60;;;;;;4948408;28;20795;-77
2022/10/13 10:15:28;;;;;;;48.53;45.73;;;19.30;72.30;;;;;;4952569;28;20483;-79
2022/10/13 10:18:00;;;;;;;53.07;50.17;;;19.20;72.10;;;;;;4955241;28;20455;-78
2022/10/13 10:20:45;;;;;;;38.33;36.03;;;19.30;72.30;;;;;;4953223;29;20464;-78
2022/10/13 10:23:17;;;;;;;42.70;40.20;;;19.30;72.10;;;;;;4953036;28;20554;-78
2022/10/13 10:25:48;;;;;;;42.97;40.30;;;19.20;72.30;;;;;;4945156;28;20456;-78
2022/10/13 10:28:44;;;;;;;33.50;31.40;;;19.20;72.40;;;;;;4951830;28;20467;-78
2022/10/13 10:31:26;;;;;;;42.73;39.80;;;19.10;72.50;;;;;;4950229;29;20481;-79
2022/10/13 10:34:06;;;;;;;42.10;39.70;;;19.00;72.70;;;;;;4951910;28;20491;-78
2022/10/13 10:36:47;;;;;;;44.87;42.17;;;19.00;72.70;;;;;;4953001;29;20459;-78
2022/10/13 10:39:23;;;;;;;48.90;46.20;;;19.00;72.90;;;;;;4947462;29;20485;-78
2022/10/13 10:41:57;;;;;;;36.77;34.10;;;19.10;72.30;;;;;;4953867;28;20470;-78
2022/10/13 10:44:30;;;;;;;37.20;34.90;;;19.00;72.90;;;;;;4957321;28;20514;-79
2022/10/13 10:47:01;;;;;;;42.03;39.23;;;19.00;73.20;;;;;;4957090;29;20825;-80
2022/10/13 10:49:31;;;;;;;35.47;33.47;;;18.90;73.20;;;;;;4957326;29;20455;-79
2022/10/13 10:52:01;;;;;;;45.53;43.13;;;19.00;72.80;;;;;;4954768;29;20497;-79
2022/10/13 10:54:40;;;;;;;36.03;33.60;;;19.00;72.00;;;;;;4955556;29;20985;-78
2022/10/13 10:57:12;;;;;;;34.63;32.30;;;19.00;72.30;;;;;;4952027;28;20522;-78
2022/10/13 10:59:57;;;;;;;50.47;47.80;;;19.10;72.20;;;;;;4951653;28;20451;-78
2022/10/13 11:02:41;;;;;;;35.73;33.50;;;19.20;71.80;;;;;;4956506;28;20531;-81
2022/10/13 11:05:08;;;;;;;46.27;43.77;;;19.20;71.60;;;;;;4958880;29;20474;-82
2022/10/13 11:07:56;;;;;;;37.10;34.83;;;19.10;71.90;;;;;;4956136;28;20798;-81
2022/10/13 11:10:25;;;;;;;45.53;42.63;;;19.20;71.80;;;;;;4957262;28;20460;-81
2022/10/13 11:13:18;;;;;;;33.93;31.73;;;19.20;72.10;;;;;;4957755;28;20455;-81
2022/10/13 11:15:46;;;;;;;37.60;34.83;;;19.30;71.30;;;;;;4948141;29;20447;-81
2022/10/13 11:18:50;;;;;;;34.20;32.20;;;19.40;71.60;;;;;;4957207;28;20467;-83
2022/10/13 11:21:17;;;;;;;32.80;30.57;;;19.50;71.30;;;;;;4956570;28;21277;-80
2022/10/13 11:23:47;;;;;;;40.27;37.90;;;19.60;71.30;;;;;;4954080;28;20477;-81
2022/10/13 11:26:42;;;;;;;34.73;32.70;;;19.90;71.20;;;;;;4958323;29;20463;-80
2022/10/13 11:29:39;;;;;;;40.23;38.00;;;20.00;70.30;;;;;;4957552;28;20553;-82
2022/10/13 11:32:53;;;;;;;36.37;33.97;;;20.00;69.90;;;;;;4961116;28;20582;-81
2022/10/13 11:35:23;;;;;;;38.90;36.70;;;20.10;70.40;;;;;;4961277;28;20559;-81
2022/10/13 11:38:06;;;;;;;36.73;34.67;;;19.90;70.30;;;;;;4965652;29;20497;-84
2022/10/13 11:40:47;;;;;;;37.87;35.67;;;19.90;70.60;;;;;;4964800;28;20558;-86
2022/10/13 11:43:27;;;;;;;54.67;51.73;;;20.00;70.00;;;;;;4965464;29;20456;-86
2022/10/13 11:46:08;;;;;;;37.97;35.40;;;20.20;70.00;;;;;;4962611;29;20459;-83
2022/10/13 11:48:56;;;;;;;44.83;42.13;;;20.20;69.70;;;;;;4963751;29;20542;-85
2022/10/13 11:51:37;;;;;;;41.43;38.87;;;20.30;69.30;;;;;;4960434;29;20463;-84
2022/10/13 11:54:19;;;;;;;37.77;35.60;;;20.40;69.50;;;;;;4954045;29;20982;-87
2022/10/13 11:56:50;;;;;;;36.80;34.70;;;20.60;69.30;;;;;;4955854;29;20531;-86
2022/10/13 11:59:23;;;;;;;39.23;36.90;;;20.60;68.30;;;;;;4957691;28;20572;-84
2022/10/13 12:01:53;;;;;;;45.47;43.00;;;20.80;67.50;;;;;;4954066;29;20470;-83
2022/10/13 12:04:22;;;;;;;35.13;32.83;;;20.80;67.30;;;;;;4961596;28;20680;-87
2022/10/13 12:06:56;;;;;;;50.13;47.50;;;21.00;67.10;;;;;;4958048;28;20581;-85
2022/10/13 12:09:23;;;;;;;35.20;33.40;;;21.00;67.00;;;;;;4953978;29;20491;-88
2022/10/13 12:12:06;;;;;;;36.67;34.77;;;21.10;66.90;;;;;;4954889;28;21007;-85
2022/10/13 12:14:38;;;;;;;44.53;41.70;;;21.20;66.50;;;;;;4951685;29;20515;-84
2022/10/13 12:17:20;;;;;;;39.73;37.67;;;21.20;66.40;;;;;;4951007;29;20535;-83
2022/10/13 12:19:49;;;;;;;32.17;30.07;;;21.40;65.90;;;;;;4954706;29;20462;-85
2022/10/13 12:22:16;;;;;;;40.50;38.10;;;21.40;66.00;;;;;;4955070;28;20467;-85
2022/10/13 12:24:43;;;;;;;33.97;32.03;;;21.50;65.90;;;;;;4954605;29;21048;-85
2022/10/13 12:27:20;;;;;;;45.43;42.83;;;21.50;65.70;;;;;;4946713;28;20548;-84
2022/10/13 12:29:47;;;;;;;33.57;31.67;;;21.50;65.60;;;;;;4942689;28;20460;-84
2022/10/13 12:32:20;;;;;;;34.20;32.20;;;21.50;66.10;;;;;;4952380;29;20554;-86
2022/10/13 12:34:47;;;;;;;42.90;40.30;;;21.60;65.30;;;;;;4951886;29;20492;-85
2022/10/13 12:37:24;;;;;;;33.33;31.37;;;21.50;64.40;;;;;;4952886;28;20471;-84
2022/10/13 12:39:52;;;;;;;35.00;33.10;;;21.50;64.50;;;;;;4946323;28;21228;-85
2022/10/13 12:42:26;;;;;;;40.53;38.53;;;21.40;64.50;;;;;;4952276;28;20978;-85
2022/10/13 12:44:53;;;;;;;43.50;41.13;;;21.50;64.40;;;;;;4958754;28;20550;-85